createdAt,value
2024-01-07T00:02:27.835Z,101324.00
2024-01-07T00:04:55.997Z,101329.00
2024-01-07T00:07:24.135Z,101332.40
2024-01-07T00:09:52.192Z,101336.80
2024-01-07T00:12:20.096Z,101339.20
2024-01-07T00:14:48.114Z,101340.00
2024-01-07T00:17:16.178Z,101347.60
2024-01-07T00:19:44.236Z,101345.40
2024-01-07T00:22:12.338Z,101354.20
2024-01-07T00:24:40.378Z,101352.20
2024-01-07T00:27:09.961Z,101359.40
2024-01-07T00:29:38.442Z,101353.00
2024-01-07T00:32:07.124Z,101354.20
2024-01-07T00:34:35.455Z,101349.40
2024-01-07T00:37:03.848Z,101355.60
2024-01-07T00:39:32.127Z,101358.00
2024-01-07T00:42:00.225Z,101351.60
2024-01-07T00:44:28.394Z,101361.20
2024-01-07T00:46:56.325Z,101359.60
2024-01-07T00:49:24.988Z,101359.80
2024-01-07T00:51:53.118Z,101359.80
2024-01-07T00:54:21.180Z,101368.60
2024-01-07T00:56:49.253Z,101367.80
2024-01-07T00:59:17.452Z,101373.00
2024-01-07T01:01:45.583Z,101374.20
2024-01-07T01:04:13.770Z,101374.40
2024-01-07T01:06:42.960Z,101380.00
2024-01-07T01:09:11.141Z,101385.40
2024-01-07T01:11:40.721Z,101394.00
2024-01-07T01:14:08.749Z,101391.80
2024-01-07T01:16:36.704Z,101395.80
2024-01-07T01:19:04.779Z,101396.80
2024-01-07T01:21:32.923Z,101401.40
2024-01-07T01:24:01.450Z,101396.40
2024-01-07T01:26:29.619Z,101405.40
2024-01-07T01:28:57.724Z,101407.40
2024-01-07T01:31:25.854Z,101405.80
2024-01-07T01:33:54.012Z,101414.60
2024-01-07T01:36:22.435Z,101408.60
2024-01-07T01:38:50.532Z,101419.60
2024-01-07T01:41:18.512Z,101418.00
2024-01-07T01:43:46.476Z,101422.60
2024-01-07T01:46:14.992Z,101429.20
2024-01-07T01:48:44.363Z,101427.80
2024-01-07T01:51:12.693Z,101432.00
2024-01-07T01:53:41.211Z,101433.80
2024-01-07T01:56:09.512Z,101436.00
2024-01-07T01:58:38.281Z,101433.60
2024-01-07T02:01:06.712Z,101435.00
2024-01-07T02:03:34.866Z,101437.80
2024-01-07T02:06:03.489Z,101446.20
2024-01-07T02:08:31.780Z,101447.00
2024-01-07T02:10:59.741Z,101453.00
2024-01-07T02:13:27.742Z,101453.40
2024-01-07T02:15:55.885Z,101458.60
2024-01-07T02:18:24.148Z,101463.80
2024-01-07T02:20:52.324Z,101465.60
2024-01-07T02:23:20.407Z,101468.00
2024-01-07T02:25:48.470Z,101470.60
2024-01-07T02:28:16.781Z,101477.20
2024-01-07T02:30:44.793Z,101480.20
2024-01-07T02:33:13.074Z,101481.60
2024-01-07T02:35:41.307Z,101485.80
2024-01-07T02:38:09.361Z,101487.20
2024-01-07T02:40:37.256Z,101488.20
2024-01-07T02:43:05.562Z,101497.40
2024-01-07T02:45:33.513Z,101497.40
2024-01-07T02:48:01.924Z,101495.80
2024-01-07T02:50:29.812Z,101500.60
2024-01-07T02:52:58.212Z,101500.60
2024-01-07T02:55:26.107Z,101502.40
2024-01-07T02:57:54.178Z,101501.00
2024-01-07T03:00:22.308Z,101495.60
2024-01-07T03:02:50.335Z,101501.20
2024-01-07T03:05:18.356Z,101508.80
2024-01-07T03:07:46.268Z,101508.00
2024-01-07T03:10:14.367Z,101500.80
2024-01-07T03:12:42.748Z,101508.60
2024-01-07T03:15:10.765Z,101503.40
2024-01-07T03:17:38.912Z,101505.20
2024-01-07T03:20:08.298Z,101509.60
2024-01-07T03:22:36.810Z,101507.80
2024-01-07T03:25:05.841Z,101502.00
2024-01-07T03:27:33.829Z,101508.40
2024-01-07T03:30:01.863Z,101511.60
2024-01-07T03:32:29.994Z,101514.40
2024-01-07T03:34:58.226Z,101513.40
2024-01-07T03:37:26.302Z,101515.80
2024-01-07T03:39:54.355Z,101522.80
2024-01-07T03:42:22.642Z,101522.80
2024-01-07T03:44:50.517Z,101523.60
2024-01-07T03:47:18.515Z,101522.80
2024-01-07T03:49:46.640Z,101522.60
2024-01-07T03:52:14.866Z,101527.80
2024-01-07T03:54:42.869Z,101524.60
2024-01-07T03:57:10.814Z,101527.60
2024-01-07T03:59:38.881Z,101532.60
2024-01-07T04:02:08.412Z,101540.40
2024-01-07T04:04:36.971Z,101541.80
2024-01-07T04:07:05.170Z,101547.60
2024-01-07T04:09:33.519Z,101558.00
2024-01-07T04:12:01.597Z,101562.80
2024-01-07T04:14:30.682Z,101570.00
2024-01-07T04:16:58.691Z,101571.80
2024-01-07T04:19:26.722Z,101579.20
2024-01-07T04:21:54.900Z,101579.40
2024-01-07T04:24:22.976Z,101582.00
2024-01-07T04:26:50.921Z,101590.00
2024-01-07T04:29:19.010Z,101594.80
2024-01-07T04:31:47.136Z,101589.80
2024-01-07T04:34:15.453Z,101592.40
2024-01-07T04:36:43.462Z,101590.40
2024-01-07T04:39:11.757Z,101592.20
2024-01-07T04:41:39.762Z,101596.20
2024-01-07T04:44:07.756Z,101597.40
2024-01-07T04:46:39.023Z,101598.20
2024-01-07T04:49:08.029Z,101602.00
2024-01-07T04:51:37.866Z,101606.00
2024-01-07T04:54:07.124Z,101609.00
2024-01-07T04:56:35.209Z,101609.00
2024-01-07T04:59:03.148Z,101614.20
2024-01-07T05:01:33.981Z,101614.00
2024-01-07T05:04:03.732Z,101623.00
2024-01-07T05:06:31.794Z,101623.20
2024-01-07T05:08:59.915Z,101633.00
2024-01-07T05:11:28.302Z,101635.20
2024-01-07T05:13:56.315Z,101631.40
2024-01-07T05:16:24.406Z,101641.20
2024-01-07T05:18:52.506Z,101642.00
2024-01-07T05:21:20.599Z,101643.80
2024-01-07T05:23:48.679Z,101650.20
2024-01-07T05:26:16.681Z,101652.60
2024-01-07T05:28:44.645Z,101653.00
2024-01-07T05:31:19.714Z,101655.60
2024-01-07T05:33:48.199Z,101658.00
2024-01-07T05:36:16.310Z,101659.60
2024-01-07T05:38:44.375Z,101655.00
2024-01-07T05:41:12.839Z,101663.60
2024-01-07T05:43:40.873Z,101658.60
2024-01-07T05:46:08.934Z,101660.80
2024-01-07T05:48:49.217Z,101660.00
2024-01-07T05:51:18.451Z,101661.20
2024-01-07T05:53:47.495Z,101667.40
2024-01-07T05:56:15.664Z,101661.40
2024-01-07T05:58:43.657Z,101664.40
2024-01-07T06:01:11.880Z,101660.40
2024-01-07T06:03:40.205Z,101664.80
2024-01-07T06:06:08.382Z,101670.20
2024-01-07T06:08:36.380Z,101668.40
2024-01-07T06:11:04.591Z,101672.80
2024-01-07T06:13:32.579Z,101677.00
2024-01-07T06:16:00.552Z,101680.40
2024-01-07T06:18:28.889Z,101684.20
2024-01-07T06:20:57.332Z,101683.60
2024-01-07T06:23:25.337Z,101684.80
2024-01-07T06:25:53.367Z,101696.00
2024-01-07T06:28:22.113Z,101695.20
2024-01-07T06:30:50.154Z,101699.40
2024-01-07T06:33:18.242Z,101696.20
2024-01-07T06:35:46.273Z,101698.80
2024-01-07T06:38:14.376Z,101698.00
2024-01-07T06:40:42.481Z,101702.80
2024-01-07T06:43:10.579Z,101708.60
2024-01-07T06:45:38.874Z,101707.80
2024-01-07T06:48:08.124Z,101712.60
2024-01-07T06:50:36.142Z,101716.80
2024-01-07T06:53:04.480Z,101721.60
2024-01-07T06:55:32.473Z,101732.80
2024-01-07T06:58:00.531Z,101729.80
2024-01-07T07:00:28.597Z,101734.40
2024-01-07T07:02:56.729Z,101739.00
2024-01-07T07:05:24.741Z,101741.80
2024-01-07T07:07:55.478Z,101741.20
2024-01-07T07:10:24.000Z,101737.80
2024-01-07T07:12:52.774Z,101742.60
2024-01-07T07:15:20.892Z,101747.00
2024-01-07T07:17:48.920Z,101740.80
2024-01-07T07:20:17.198Z,101746.80
2024-01-07T07:22:45.322Z,101758.40
2024-01-07T07:25:13.449Z,101756.40
2024-01-07T07:27:41.561Z,101758.00
2024-01-07T07:30:09.844Z,101762.80
2024-01-07T07:32:42.539Z,101759.20
2024-01-07T07:35:10.498Z,101770.00
2024-01-07T07:37:39.418Z,101766.20
2024-01-07T07:40:08.353Z,101769.00
2024-01-07T07:42:36.501Z,101765.00
2024-01-07T07:45:05.596Z,101768.20
2024-01-07T07:47:33.600Z,101775.20
2024-01-07T07:50:03.480Z,101777.20
2024-01-07T07:52:31.617Z,101780.60
2024-01-07T07:54:59.855Z,101784.00
2024-01-07T07:57:27.866Z,101790.40
2024-01-07T07:59:56.368Z,101792.20
2024-01-07T08:02:24.439Z,101796.00
2024-01-07T08:04:52.768Z,101796.80
2024-01-07T08:07:20.688Z,101800.40
2024-01-07T08:09:48.663Z,101795.20
2024-01-07T08:12:16.712Z,101791.80
2024-01-07T08:14:44.737Z,101792.20
2024-01-07T08:17:12.749Z,101798.80
2024-01-07T08:19:40.881Z,101802.80
2024-01-07T08:22:10.644Z,101807.20
2024-01-07T08:24:39.030Z,101802.60
2024-01-07T08:27:06.953Z,101799.80
2024-01-07T08:29:35.033Z,101802.60
2024-01-07T08:32:03.290Z,101799.80
2024-01-07T08:34:31.531Z,101807.00
2024-01-07T08:36:59.689Z,101814.40
2024-01-07T08:39:29.875Z,101810.40
2024-01-07T08:41:58.042Z,101804.80
2024-01-07T08:44:25.941Z,101805.60
2024-01-07T08:46:53.927Z,101803.00
2024-01-07T08:49:22.246Z,101810.20
2024-01-07T08:51:50.387Z,101806.20
2024-01-07T08:54:18.467Z,101798.80
2024-01-07T08:56:46.982Z,101794.20
2024-01-07T08:59:14.990Z,101793.00
2024-01-07T09:01:43.156Z,101793.40
2024-01-07T09:04:11.287Z,101799.40
2024-01-07T09:06:39.918Z,101798.80
2024-01-07T09:09:08.055Z,101800.20
2024-01-07T09:11:36.934Z,101805.80
2024-01-07T09:14:04.921Z,101803.80
2024-01-07T09:16:32.848Z,101801.20
2024-01-07T09:19:01.083Z,101803.20
2024-01-07T09:21:29.282Z,101800.40
2024-01-07T09:23:57.463Z,101798.20
2024-01-07T09:26:25.359Z,101794.00
2024-01-07T09:28:53.281Z,101789.60
2024-01-07T09:31:21.307Z,101790.20
2024-01-07T09:33:49.507Z,101798.00
2024-01-07T09:36:26.407Z,101800.40
2024-01-07T09:38:58.384Z,101807.80
2024-01-07T09:41:27.247Z,101810.00
2024-01-07T09:43:55.499Z,101806.60
2024-01-07T09:46:23.967Z,101801.60
2024-01-07T09:48:53.031Z,101801.40
2024-01-07T09:51:24.960Z,101800.80
2024-01-07T09:54:00.086Z,101808.80
2024-01-07T09:56:36.449Z,101803.80
2024-01-07T09:59:04.538Z,101800.60
2024-01-07T10:01:32.997Z,101797.20
2024-01-07T10:04:01.425Z,101794.40
2024-01-07T10:06:29.997Z,101795.20
2024-01-07T10:08:59.393Z,101795.00
2024-01-07T10:11:27.363Z,101803.60
2024-01-07T10:13:55.714Z,101799.40
2024-01-07T10:16:23.704Z,101794.00
2024-01-07T10:18:52.080Z,101797.00
2024-01-07T10:21:20.206Z,101798.80
2024-01-07T10:23:48.616Z,101790.00
2024-01-07T10:26:23.880Z,101795.80
2024-01-07T10:28:56.186Z,101793.20
2024-01-07T10:31:24.534Z,101803.20
2024-01-07T10:33:54.465Z,101787.60
2024-01-07T10:36:23.197Z,101774.80
2024-01-07T10:38:51.724Z,101771.20
2024-01-07T10:41:20.598Z,101769.80
2024-01-07T10:43:50.072Z,101768.20
2024-01-07T10:46:18.708Z,101758.20
2024-01-07T10:49:05.871Z,101765.40
2024-01-07T10:51:36.435Z,101776.60
2024-01-07T10:54:04.889Z,101784.60
2024-01-07T10:57:03.344Z,101787.20
2024-01-07T10:59:33.366Z,101781.40
2024-01-07T11:02:03.996Z,101785.00
2024-01-07T11:04:54.527Z,101780.80
2024-01-07T11:07:50.923Z,101777.80
2024-01-07T11:10:35.156Z,101768.60
2024-01-07T11:13:06.954Z,101767.80
2024-01-07T11:15:54.435Z,101764.80
2024-01-07T11:18:24.778Z,101768.00
2024-01-07T11:20:54.380Z,101757.60
2024-01-07T11:23:47.618Z,101754.20
2024-01-07T11:26:15.877Z,101758.80
2024-01-07T11:28:58.310Z,101746.60
2024-01-07T11:31:48.512Z,101748.80
2024-01-07T11:34:48.936Z,101751.40
2024-01-07T11:37:17.397Z,101746.40
2024-01-07T11:39:47.197Z,101744.60
2024-01-07T11:42:15.534Z,101743.20
2024-01-07T11:44:52.793Z,101743.80
2024-01-07T11:47:22.995Z,101753.00
2024-01-07T11:49:51.473Z,101754.20
2024-01-07T11:52:21.294Z,101756.80
2024-01-07T11:54:50.255Z,101754.60
2024-01-07T11:57:19.061Z,101753.00
2024-01-07T11:59:47.552Z,101752.60
2024-01-07T12:02:16.519Z,101750.00
2024-01-07T12:04:45.168Z,101756.00
2024-01-07T12:07:16.079Z,101747.20
2024-01-07T12:09:44.941Z,101744.00
2024-01-07T12:12:13.528Z,101746.20
2024-01-07T12:14:42.076Z,101754.40
2024-01-07T12:17:13.895Z,101759.60
2024-01-07T12:19:42.983Z,101752.20
2024-01-07T12:22:11.457Z,101750.40
2024-01-07T12:24:39.648Z,101753.20
2024-01-07T12:27:08.503Z,101747.80
2024-01-07T12:29:36.494Z,101751.60
2024-01-07T12:32:06.551Z,101747.80
2024-01-07T12:34:34.785Z,101748.20
2024-01-07T12:37:03.716Z,101747.60
2024-01-07T12:39:31.989Z,101744.40
2024-01-07T12:42:00.140Z,101744.60
2024-01-07T12:44:29.870Z,101743.40
2024-01-07T12:46:58.108Z,101746.80
2024-01-07T12:49:26.336Z,101748.20
2024-01-07T12:51:55.232Z,101750.00
2024-01-07T12:54:24.978Z,101750.00
2024-01-07T12:56:53.162Z,101751.00
2024-01-07T12:59:21.170Z,101752.40
2024-01-07T13:01:49.540Z,101758.80
2024-01-07T13:04:18.689Z,101763.00
2024-01-07T13:06:47.072Z,101764.40
2024-01-07T13:09:15.660Z,101765.60
2024-01-07T13:11:43.832Z,101774.60
2024-01-07T13:14:12.029Z,101777.60
2024-01-07T13:16:40.207Z,101784.80
2024-01-07T13:19:10.094Z,101785.00
2024-01-07T13:21:42.642Z,101788.80
2024-01-07T13:24:11.220Z,101786.80
2024-01-07T13:26:39.548Z,101791.80
2024-01-07T13:29:07.668Z,101795.40
2024-01-07T13:31:35.684Z,101805.40
2024-01-07T13:34:05.009Z,101802.80
2024-01-07T13:36:33.205Z,101802.80
2024-01-07T13:39:01.257Z,101805.00
2024-01-07T13:41:33.740Z,101803.40
2024-01-07T13:44:04.379Z,101807.20
2024-01-07T13:46:32.517Z,101807.60
2024-01-07T13:49:01.759Z,101818.80
2024-01-07T13:51:30.021Z,101818.20
2024-01-07T13:53:59.446Z,101824.00
2024-01-07T13:56:27.916Z,101832.40
2024-01-07T13:58:57.348Z,101830.60
2024-01-07T14:01:25.556Z,101828.40
2024-01-07T14:03:53.679Z,101834.80
2024-01-07T14:06:22.601Z,101831.40
2024-01-07T14:08:50.574Z,101828.80
2024-01-07T14:11:19.711Z,101833.60
2024-01-07T14:13:48.168Z,101826.80
2024-01-07T14:16:16.299Z,101836.20
2024-01-07T14:18:44.452Z,101833.60
2024-01-07T14:21:12.647Z,101837.80
2024-01-07T14:23:40.684Z,101828.40
2024-01-07T14:26:08.763Z,101827.60
2024-01-07T14:28:36.965Z,101838.40
2024-01-07T14:31:05.631Z,101841.00
2024-01-07T14:33:34.440Z,101841.60
2024-01-07T14:36:05.513Z,101840.80
2024-01-07T14:38:33.994Z,101845.40
2024-01-07T14:41:02.143Z,101846.20
2024-01-07T14:43:30.827Z,101848.20
2024-01-07T14:45:58.999Z,101859.20
2024-01-07T14:48:27.104Z,101854.60
2024-01-07T14:50:55.252Z,101856.40
2024-01-07T14:53:23.367Z,101855.40
2024-01-07T14:55:52.511Z,101848.80
2024-01-07T14:58:22.535Z,101855.60
2024-01-07T15:00:51.202Z,101854.80
2024-01-07T15:03:20.905Z,101858.80
2024-01-07T15:05:49.138Z,101856.20
2024-01-07T15:08:17.243Z,101857.60
2024-01-07T15:10:45.586Z,101858.80
2024-01-07T15:13:18.235Z,101858.20
2024-01-07T15:15:48.932Z,101864.20
2024-01-07T15:18:17.664Z,101861.80
2024-01-07T15:20:46.076Z,101862.80
2024-01-07T15:23:14.251Z,101869.80
2024-01-07T15:25:42.681Z,101871.60
2024-01-07T15:28:10.716Z,101874.60
2024-01-07T15:30:39.042Z,101875.40
2024-01-07T15:33:07.203Z,101875.60
2024-01-07T15:35:35.197Z,101880.60
2024-01-07T15:38:03.562Z,101876.00
2024-01-07T15:40:32.067Z,101874.60
2024-01-07T15:43:00.994Z,101879.80
2024-01-07T15:45:29.292Z,101884.40
2024-01-07T15:47:57.614Z,101892.40
2024-01-07T15:50:27.042Z,101896.00
2024-01-07T15:52:57.199Z,101895.40
2024-01-07T15:55:25.317Z,101906.80
2024-01-07T15:57:53.540Z,101905.20
2024-01-07T16:00:21.991Z,101910.60
2024-01-07T16:02:50.344Z,101906.00
2024-01-07T16:05:19.601Z,101907.80
2024-01-07T16:07:47.958Z,101916.20
2024-01-07T16:10:16.364Z,101919.60
2024-01-07T16:12:44.601Z,101924.60
2024-01-07T16:15:12.946Z,101924.80
2024-01-07T16:17:43.797Z,101934.00
2024-01-07T16:20:14.074Z,101941.20
2024-01-07T16:22:42.516Z,101939.20
2024-01-07T16:25:10.694Z,101938.20
2024-01-07T16:27:39.563Z,101944.80
2024-01-07T16:30:09.912Z,101946.60
2024-01-07T16:32:38.450Z,101949.40
2024-01-07T16:35:07.398Z,101949.40
2024-01-07T16:37:35.619Z,101951.20
2024-01-07T16:40:05.186Z,101951.60
2024-01-07T16:42:33.436Z,101959.40
2024-01-07T16:45:02.380Z,101955.20
2024-01-07T16:47:30.501Z,101959.20
2024-01-07T16:52:29.952Z,101957.00
2024-01-07T16:54:58.175Z,101967.00
2024-01-07T16:57:26.228Z,101962.80
2024-01-07T16:59:54.321Z,101965.60
2024-01-07T17:02:22.596Z,101963.60
2024-01-07T17:04:51.125Z,101961.20
2024-01-07T17:07:22.398Z,101965.20
2024-01-07T17:09:50.427Z,101968.00
2024-01-07T17:12:18.435Z,101969.20
2024-01-07T17:14:47.149Z,101975.60
2024-01-07T17:17:15.238Z,101976.00
2024-01-07T17:19:43.786Z,101976.80
2024-01-07T17:22:12.171Z,101973.40
2024-01-07T17:24:41.814Z,101968.60
2024-01-07T17:27:09.955Z,101963.60
2024-01-07T17:29:38.048Z,101970.20
2024-01-07T17:32:06.670Z,101959.20
2024-01-07T17:34:34.836Z,101961.20
2024-01-07T17:37:04.455Z,101964.40
2024-01-07T17:39:34.687Z,101967.20
2024-01-07T17:42:07.065Z,101966.60
2024-01-07T17:44:35.158Z,101967.80
2024-01-07T17:47:03.384Z,101972.40
2024-01-07T17:49:31.982Z,101975.80
2024-01-07T17:52:00.224Z,101974.60
2024-01-07T17:54:28.520Z,101975.60
2024-01-07T17:56:56.576Z,101985.00
2024-01-07T17:59:24.693Z,101986.00
2024-01-07T18:01:54.180Z,101987.80
2024-01-07T18:04:22.418Z,101993.60
2024-01-07T18:06:50.397Z,101989.40
2024-01-07T18:09:18.445Z,101995.60
2024-01-07T18:11:46.526Z,101994.40
2024-01-07T18:14:15.743Z,101995.60
2024-01-07T18:16:44.370Z,102001.00
2024-01-07T18:19:12.656Z,102008.20
2024-01-07T18:21:41.183Z,102009.80
2024-01-07T18:24:11.193Z,102009.60
2024-01-07T18:26:39.160Z,102009.80
2024-01-07T18:29:10.924Z,102011.40
2024-01-07T18:31:43.048Z,102014.00
2024-01-07T18:34:12.065Z,102017.80
2024-01-07T18:36:41.736Z,102016.20
2024-01-07T18:39:10.143Z,102018.20
2024-01-07T18:41:38.709Z,102017.40
2024-01-07T18:44:08.629Z,102024.20
2024-01-07T18:46:37.048Z,102026.20
2024-01-07T18:49:05.304Z,102025.40
2024-01-07T18:51:33.365Z,102029.20
2024-01-07T18:54:01.487Z,102028.80
2024-01-07T18:56:30.081Z,102035.40
2024-01-07T18:58:58.426Z,102039.40
2024-01-07T19:01:28.606Z,102040.00
2024-01-07T19:03:56.924Z,102039.40
2024-01-07T19:06:24.942Z,102040.60
2024-01-07T19:08:54.135Z,102036.40
2024-01-07T19:11:22.471Z,102049.80
2024-01-07T19:13:50.768Z,102056.60
2024-01-07T19:16:19.022Z,102054.60
2024-01-07T19:18:47.386Z,102060.40
2024-01-07T19:21:18.082Z,102073.00
2024-01-07T19:23:46.062Z,102070.40
2024-01-07T19:26:14.296Z,102077.00
2024-01-07T19:28:43.764Z,102086.20
2024-01-07T19:31:12.108Z,102090.20
2024-01-07T19:33:44.516Z,102108.40
2024-01-07T19:36:13.046Z,102111.00
2024-01-07T19:38:41.098Z,102130.00
2024-01-07T19:41:09.188Z,102132.20
2024-01-07T19:43:37.427Z,102133.20
2024-01-07T19:46:05.476Z,102138.60
2024-01-07T19:48:33.656Z,102141.60
2024-01-07T19:51:01.951Z,102142.80
2024-01-07T19:53:31.399Z,102147.40
2024-01-07T19:56:03.332Z,102147.40
2024-01-07T19:58:32.140Z,102150.40
2024-01-07T20:01:00.293Z,102160.60
2024-01-07T20:03:28.464Z,102163.40
2024-01-07T20:05:56.610Z,102170.60
2024-01-07T20:08:24.898Z,102178.20
2024-01-07T20:10:54.094Z,102185.80
2024-01-07T20:13:23.849Z,102182.40
2024-01-07T20:15:51.964Z,102185.60
2024-01-07T20:18:20.124Z,102188.20
2024-01-07T20:20:48.585Z,102185.40
2024-01-07T20:23:17.345Z,102194.40
2024-01-07T20:25:47.674Z,102190.80
2024-01-07T20:28:15.872Z,102194.00
2024-01-07T20:30:44.181Z,102195.20
2024-01-07T20:33:15.681Z,102202.60
2024-01-07T20:35:44.798Z,102197.00
2024-01-07T20:38:12.953Z,102205.80
2024-01-07T20:40:41.096Z,102208.40
2024-01-07T20:43:11.582Z,102208.20
2024-01-07T20:45:40.019Z,102208.40
2024-01-07T20:48:08.505Z,102213.00
2024-01-07T20:50:38.920Z,102217.60
2024-01-07T20:53:07.354Z,102220.80
2024-01-07T20:55:36.129Z,102228.40
2024-01-07T20:58:04.505Z,102229.60
2024-01-07T21:00:33.627Z,102229.00
2024-01-07T21:03:01.980Z,102233.00
2024-01-07T21:05:30.950Z,102227.40
2024-01-07T21:07:59.469Z,102233.80
2024-01-07T21:10:28.435Z,102233.20
2024-01-07T21:12:59.005Z,102237.60
2024-01-07T21:15:27.374Z,102247.20
2024-01-07T21:18:02.464Z,102251.40
2024-01-07T21:20:31.654Z,102258.00
2024-01-07T21:22:59.959Z,102268.20
2024-01-07T21:25:30.320Z,102264.00
2024-01-07T21:27:59.932Z,102265.60
2024-01-07T21:30:28.397Z,102268.60
2024-01-07T21:32:56.683Z,102270.60
2024-01-07T21:35:25.013Z,102278.40
2024-01-07T21:37:53.194Z,102282.00
2024-01-07T21:40:21.350Z,102291.60
2024-01-07T21:42:49.482Z,102294.60
2024-01-07T21:45:17.742Z,102293.80
2024-01-07T21:47:45.726Z,102299.60
2024-01-07T21:50:14.199Z,102296.60
2024-01-07T21:52:54.382Z,102303.20
2024-01-07T21:55:22.931Z,102301.80
2024-01-07T21:57:51.037Z,102306.00
2024-01-07T22:00:19.387Z,102312.60
2024-01-07T22:02:48.387Z,102318.60
2024-01-07T22:05:16.729Z,102316.80
2024-01-07T22:07:44.781Z,102323.60
2024-01-07T22:10:12.904Z,102324.40
2024-01-07T22:12:40.938Z,102331.40
2024-01-07T22:15:10.004Z,102332.60
2024-01-07T22:17:38.295Z,102333.40
2024-01-07T22:20:09.636Z,102332.20
2024-01-07T22:22:37.624Z,102333.80
2024-01-07T22:25:06.492Z,102344.40
2024-01-07T22:27:35.918Z,102335.60
2024-01-07T22:30:05.285Z,102340.60
2024-01-07T22:32:33.664Z,102340.00
2024-01-07T22:35:02.203Z,102341.60
2024-01-07T22:37:30.993Z,102347.20
2024-01-07T22:39:58.953Z,102351.40
2024-01-07T22:42:27.065Z,102353.80
2024-01-07T22:44:55.045Z,102352.40
2024-01-07T22:47:23.094Z,102348.20
2024-01-07T22:49:51.451Z,102352.00
2024-01-07T22:52:21.366Z,102354.40
2024-01-07T22:54:51.023Z,102354.40
2024-01-07T22:57:18.972Z,102359.40
2024-01-07T22:59:47.233Z,102358.60
2024-01-07T23:02:16.403Z,102363.40
2024-01-07T23:04:44.961Z,102364.40
2024-01-07T23:07:13.175Z,102364.20
2024-01-07T23:09:42.467Z,102370.20
2024-01-07T23:12:10.636Z,102369.40
2024-01-07T23:14:38.818Z,102370.60
2024-01-07T23:17:07.076Z,102375.00
2024-01-07T23:19:35.291Z,102381.40
2024-01-07T23:22:03.486Z,102379.80
2024-01-07T23:24:32.162Z,102388.60
2024-01-07T23:27:00.144Z,102385.60
2024-01-07T23:29:28.512Z,102388.20
2024-01-07T23:31:56.727Z,102392.40
2024-01-07T23:34:24.952Z,102392.60
2024-01-07T23:36:53.719Z,102397.60
2024-01-07T23:39:21.661Z,102407.80
2024-01-07T23:41:49.704Z,102408.40
2024-01-07T23:44:17.830Z,102407.40
2024-01-07T23:46:46.032Z,102411.00
2024-01-07T23:49:13.981Z,102419.00
2024-01-07T23:51:42.024Z,102417.60
2024-01-07T23:54:10.517Z,102418.20
2024-01-07T23:56:40.523Z,102418.60
2024-01-07T23:59:08.783Z,102425.20
